sensor_id;sensor_type;location;lat;lon;timestamp;P1;durP1;ratioP1;P2;durP2;ratioP2
37065;SDS011;22981;43.080;25.550;2023-07-13T00:01:53;13.03;;;11.60;;
37065;SDS011;22981;43.080;25.550;2023-07-13T00:04:21;14.68;;;11.38;;
37065;SDS011;22981;43.080;25.550;2023-07-13T00:06:50;15.13;;;12.80;;
37065;SDS011;22981;43.080;25.550;2023-07-13T00:09:18;13.83;;;12.40;;
37065;SDS011;22981;43.080;25.550;2023-07-13T00:11:50;13.53;;;12.07;;
37065;SDS011;22981;43.080;25.550;2023-07-13T00:14:18;12.95;;;11.45;;
37065;SDS011;22981;43.080;25.550;2023-07-13T00:16:46;13.28;;;11.65;;
37065;SDS011;22981;43.080;25.550;2023-07-13T00:19:14;13.93;;;12.50;;
37065;SDS011;22981;43.080;25.550;2023-07-13T00:21:42;13.35;;;11.75;;
37065;SDS011;22981;43.080;25.550;2023-07-13T00:24:13;15.95;;;11.88;;
37065;SDS011;22981;43.080;25.550;2023-07-13T00:26:44;13.15;;;11.55;;
37065;SDS011;22981;43.080;25.550;2023-07-13T00:29:12;14.00;;;11.63;;
37065;SDS011;22981;43.080;25.550;2023-07-13T00:31:39;12.50;;;10.88;;
37065;SDS011;22981;43.080;25.550;2023-07-13T00:34:08;13.32;;;10.82;;
37065;SDS011;22981;43.080;25.550;2023-07-13T00:36:35;12.93;;;11.57;;
37065;SDS011;22981;43.080;25.550;2023-07-13T00:39:03;12.40;;;10.60;;
37065;SDS011;22981;43.080;25.550;2023-07-13T00:41:31;16.12;;;11.43;;
37065;SDS011;22981;43.080;25.550;2023-07-13T00:43:59;15.40;;;10.30;;
37065;SDS011;22981;43.080;25.550;2023-07-13T00:46:27;12.45;;;11.18;;
37065;SDS011;22981;43.080;25.550;2023-07-13T00:49:02;16.37;;;11.60;;
37065;SDS011;22981;43.080;25.550;2023-07-13T00:51:32;15.85;;;11.43;;
37065;SDS011;22981;43.080;25.550;2023-07-13T00:54:04;15.23;;;12.05;;
37065;SDS011;22981;43.080;25.550;2023-07-13T00:56:31;17.20;;;11.43;;
37065;SDS011;22981;43.080;25.550;2023-07-13T00:59:01;14.23;;;11.30;;
37065;SDS011;22981;43.080;25.550;2023-07-13T01:01:31;12.60;;;11.20;;
37065;SDS011;22981;43.080;25.550;2023-07-13T01:03:59;14.13;;;11.43;;
37065;SDS011;22981;43.080;25.550;2023-07-13T01:06:26;16.37;;;11.85;;
37065;SDS011;22981;43.080;25.550;2023-07-13T01:08:54;13.80;;;11.28;;
37065;SDS011;22981;43.080;25.550;2023-07-13T01:11:24;13.62;;;11.33;;
37065;SDS011;22981;43.080;25.550;2023-07-13T01:13:54;15.10;;;12.25;;
37065;SDS011;22981;43.080;25.550;2023-07-13T01:16:25;15.30;;;12.47;;
37065;SDS011;22981;43.080;25.550;2023-07-13T01:18:55;14.47;;;11.73;;
37065;SDS011;22981;43.080;25.550;2023-07-13T01:21:24;12.55;;;11.18;;
37065;SDS011;22981;43.080;25.550;2023-07-13T01:23:52;12.18;;;11.00;;
37065;SDS011;22981;43.080;25.550;2023-07-13T01:26:19;14.83;;;11.05;;
37065;SDS011;22981;43.080;25.550;2023-07-13T01:28:47;12.88;;;11.08;;
37065;SDS011;22981;43.080;25.550;2023-07-13T01:31:15;14.50;;;11.63;;
37065;SDS011;22981;43.080;25.550;2023-07-13T01:33:43;12.80;;;11.50;;
37065;SDS011;22981;43.080;25.550;2023-07-13T01:36:11;15.15;;;11.50;;
37065;SDS011;22981;43.080;25.550;2023-07-13T01:38:39;14.45;;;12.45;;
37065;SDS011;22981;43.080;25.550;2023-07-13T01:41:07;14.20;;;12.33;;
37065;SDS011;22981;43.080;25.550;2023-07-13T01:43:34;16.57;;;11.57;;
37065;SDS011;22981;43.080;25.550;2023-07-13T01:46:02;15.38;;;11.93;;
37065;SDS011;22981;43.080;25.550;2023-07-13T01:48:29;13.70;;;11.18;;
37065;SDS011;22981;43.080;25.550;2023-07-13T01:50:57;14.98;;;12.03;;
37065;SDS011;22981;43.080;25.550;2023-07-13T01:53:25;15.60;;;11.78;;
37065;SDS011;22981;43.080;25.550;2023-07-13T01:55:52;14.43;;;12.03;;
37065;SDS011;22981;43.080;25.550;2023-07-13T01:58:20;14.30;;;12.00;;
37065;SDS011;22981;43.080;25.550;2023-07-13T02:00:48;17.30;;;12.60;;
37065;SDS011;22981;43.080;25.550;2023-07-13T02:03:16;16.50;;;12.82;;
37065;SDS011;22981;43.080;25.550;2023-07-13T02:05:45;17.52;;;12.47;;
37065;SDS011;22981;43.080;25.550;2023-07-13T02:08:13;17.10;;;12.75;;
37065;SDS011;22981;43.080;25.550;2023-07-13T02:10:40;13.65;;;12.25;;
37065;SDS011;22981;43.080;25.550;2023-07-13T02:13:08;14.33;;;12.35;;
37065;SDS011;22981;43.080;25.550;2023-07-13T02:15:38;15.13;;;12.65;;
37065;SDS011;22981;43.080;25.550;2023-07-13T02:18:06;13.55;;;12.15;;
37065;SDS011;22981;43.080;25.550;2023-07-13T02:20:34;13.32;;;11.80;;
37065;SDS011;22981;43.080;25.550;2023-07-13T02:23:02;14.58;;;12.55;;
37065;SDS011;22981;43.080;25.550;2023-07-13T02:25:29;15.28;;;12.15;;
37065;SDS011;22981;43.080;25.550;2023-07-13T02:27:57;13.75;;;12.18;;
37065;SDS011;22981;43.080;25.550;2023-07-13T02:30:24;15.90;;;12.70;;
37065;SDS011;22981;43.080;25.550;2023-07-13T02:32:55;20.72;;;12.63;;
37065;SDS011;22981;43.080;25.550;2023-07-13T02:35:23;14.55;;;12.30;;
37065;SDS011;22981;43.080;25.550;2023-07-13T02:37:51;16.90;;;12.35;;
37065;SDS011;22981;43.080;25.550;2023-07-13T02:40:18;15.75;;;12.30;;
37065;SDS011;22981;43.080;25.550;2023-07-13T02:42:46;17.23;;;12.20;;
37065;SDS011;22981;43.080;25.550;2023-07-13T02:45:14;14.58;;;12.73;;
37065;SDS011;22981;43.080;25.550;2023-07-13T02:47:41;14.58;;;11.90;;
37065;SDS011;22981;43.080;25.550;2023-07-13T02:50:09;17.75;;;11.73;;
37065;SDS011;22981;43.080;25.550;2023-07-13T02:52:36;13.60;;;10.93;;
37065;SDS011;22981;43.080;25.550;2023-07-13T02:55:04;13.78;;;11.30;;
37065;SDS011;22981;43.080;25.550;2023-07-13T02:57:32;16.87;;;11.53;;
37065;SDS011;22981;43.080;25.550;2023-07-13T03:00:00;14.13;;;11.90;;
37065;SDS011;22981;43.080;25.550;2023-07-13T03:02:30;13.95;;;12.55;;
37065;SDS011;22981;43.080;25.550;2023-07-13T03:04:58;14.03;;;12.05;;
37065;SDS011;22981;43.080;25.550;2023-07-13T03:07:26;13.58;;;12.18;;
37065;SDS011;22981;43.080;25.550;2023-07-13T03:09:57;15.10;;;12.00;;
37065;SDS011;22981;43.080;25.550;2023-07-13T03:12:25;16.15;;;13.65;;
37065;SDS011;22981;43.080;25.550;2023-07-13T03:14:53;13.53;;;12.10;;
37065;SDS011;22981;43.080;25.550;2023-07-13T03:17:20;18.07;;;11.48;;
37065;SDS011;22981;43.080;25.550;2023-07-13T03:19:48;13.50;;;11.48;;
37065;SDS011;22981;43.080;25.550;2023-07-13T03:22:17;13.43;;;11.97;;
37065;SDS011;22981;43.080;25.550;2023-07-13T03:24:45;16.20;;;12.82;;
37065;SDS011;22981;43.080;25.550;2023-07-13T03:27:14;14.15;;;12.50;;
37065;SDS011;22981;43.080;25.550;2023-07-13T03:29:43;15.68;;;12.15;;
37065;SDS011;22981;43.080;25.550;2023-07-13T03:32:11;14.65;;;11.95;;
37065;SDS011;22981;43.080;25.550;2023-07-13T03:34:38;16.25;;;12.28;;
37065;SDS011;22981;43.080;25.550;2023-07-13T03:37:06;17.73;;;12.53;;
37065;SDS011;22981;43.080;25.550;2023-07-13T03:39:34;18.85;;;13.13;;
37065;SDS011;22981;43.080;25.550;2023-07-13T03:42:01;17.25;;;13.22;;
37065;SDS011;22981;43.080;25.550;2023-07-13T03:44:29;14.65;;;12.73;;
37065;SDS011;22981;43.080;25.550;2023-07-13T03:46:57;17.27;;;13.80;;
37065;SDS011;22981;43.080;25.550;2023-07-13T03:49:24;17.05;;;12.35;;
37065;SDS011;22981;43.080;25.550;2023-07-13T03:51:57;14.35;;;12.85;;
37065;SDS011;22981;43.080;25.550;2023-07-13T03:54:29;15.65;;;12.73;;
37065;SDS011;22981;43.080;25.550;2023-07-13T03:56:59;15.45;;;12.73;;
37065;SDS011;22981;43.080;25.550;2023-07-13T03:59:27;14.15;;;12.65;;
37065;SDS011;22981;43.080;25.550;2023-07-13T04:01:55;18.73;;;13.10;;
37065;SDS011;22981;43.080;25.550;2023-07-13T04:04:22;18.30;;;13.13;;
37065;SDS011;22981;43.080;25.550;2023-07-13T04:06:50;18.50;;;14.10;;
37065;SDS011;22981;43.080;25.550;2023-07-13T04:09:18;20.12;;;14.65;;
37065;SDS011;22981;43.080;25.550;2023-07-13T04:11:46;18.98;;;14.15;;
37065;SDS011;22981;43.080;25.550;2023-07-13T04:14:14;16.35;;;14.75;;
37065;SDS011;22981;43.080;25.550;2023-07-13T04:16:42;15.75;;;14.15;;
37065;SDS011;22981;43.080;25.550;2023-07-13T04:19:11;18.07;;;13.75;;
37065;SDS011;22981;43.080;25.550;2023-07-13T04:21:39;17.80;;;14.80;;
37065;SDS011;22981;43.080;25.550;2023-07-13T04:24:07;17.52;;;14.38;;
37065;SDS011;22981;43.080;25.550;2023-07-13T04:26:34;17.75;;;15.50;;
37065;SDS011;22981;43.080;25.550;2023-07-13T04:29:04;16.50;;;14.90;;
37065;SDS011;22981;43.080;25.550;2023-07-13T04:31:32;16.62;;;14.85;;
37065;SDS011;22981;43.080;25.550;2023-07-13T04:34:00;23.05;;;15.10;;
37065;SDS011;22981;43.080;25.550;2023-07-13T04:36:28;18.17;;;15.90;;
37065;SDS011;22981;43.080;25.550;2023-07-13T04:38:56;17.25;;;14.73;;
37065;SDS011;22981;43.080;25.550;2023-07-13T04:41:24;17.02;;;14.60;;
37065;SDS011;22981;43.080;25.550;2023-07-13T04:43:51;16.95;;;14.45;;
37065;SDS011;22981;43.080;25.550;2023-07-13T04:46:19;16.90;;;15.20;;
37065;SDS011;22981;43.080;25.550;2023-07-13T04:48:48;16.27;;;14.40;;
37065;SDS011;22981;43.080;25.550;2023-07-13T04:51:18;16.65;;;15.00;;
37065;SDS011;22981;43.080;25.550;2023-07-13T04:53:45;17.12;;;15.40;;
37065;SDS011;22981;43.080;25.550;2023-07-13T04:56:13;17.98;;;16.07;;
37065;SDS011;22981;43.080;25.550;2023-07-13T04:58:40;17.30;;;15.50;;
37065;SDS011;22981;43.080;25.550;2023-07-13T05:01:08;17.02;;;14.53;;
37065;SDS011;22981;43.080;25.550;2023-07-13T05:03:36;16.67;;;15.08;;
37065;SDS011;22981;43.080;25.550;2023-07-13T05:06:05;18.40;;;14.80;;
37065;SDS011;22981;43.080;25.550;2023-07-13T05:08:35;17.25;;;15.40;;
37065;SDS011;22981;43.080;25.550;2023-07-13T05:11:03;17.12;;;15.00;;
37065;SDS011;22981;43.080;25.550;2023-07-13T05:13:32;15.48;;;13.75;;
37065;SDS011;22981;43.080;25.550;2023-07-13T05:16:05;18.35;;;13.65;;
37065;SDS011;22981;43.080;25.550;2023-07-13T05:18:32;18.15;;;14.38;;
37065;SDS011;22981;43.080;25.550;2023-07-13T05:21:04;15.95;;;13.70;;
37065;SDS011;22981;43.080;25.550;2023-07-13T05:23:34;18.23;;;13.85;;
37065;SDS011;22981;43.080;25.550;2023-07-13T05:26:02;16.87;;;13.43;;
37065;SDS011;22981;43.080;25.550;2023-07-13T05:28:31;14.65;;;13.13;;
37065;SDS011;22981;43.080;25.550;2023-07-13T05:30:58;16.23;;;13.05;;
37065;SDS011;22981;43.080;25.550;2023-07-13T05:33:26;16.32;;;13.10;;
37065;SDS011;22981;43.080;25.550;2023-07-13T05:35:54;17.27;;;13.45;;
37065;SDS011;22981;43.080;25.550;2023-07-13T05:38:22;17.12;;;12.80;;
37065;SDS011;22981;43.080;25.550;2023-07-13T05:40:50;18.12;;;13.78;;
37065;SDS011;22981;43.080;25.550;2023-07-13T05:43:17;17.23;;;14.38;;
37065;SDS011;22981;43.080;25.550;2023-07-13T05:45:45;16.48;;;13.43;;
37065;SDS011;22981;43.080;25.550;2023-07-13T05:48:12;18.02;;;13.00;;
37065;SDS011;22981;43.080;25.550;2023-07-13T05:50:40;17.60;;;13.35;;
37065;SDS011;22981;43.080;25.550;2023-07-13T05:53:08;16.85;;;13.60;;
37065;SDS011;22981;43.080;25.550;2023-07-13T05:55:35;15.75;;;13.58;;
37065;SDS011;22981;43.080;25.550;2023-07-13T05:58:05;17.55;;;13.03;;
37065;SDS011;22981;43.080;25.550;2023-07-13T06:00:32;15.55;;;12.45;;
37065;SDS011;22981;43.080;25.550;2023-07-13T06:03:00;15.60;;;12.28;;
37065;SDS011;22981;43.080;25.550;2023-07-13T06:05:27;15.75;;;12.18;;
37065;SDS011;22981;43.080;25.550;2023-07-13T06:07:55;15.72;;;11.80;;
37065;SDS011;22981;43.080;25.550;2023-07-13T06:10:22;17.00;;;11.57;;
37065;SDS011;22981;43.080;25.550;2023-07-13T06:12:50;14.50;;;11.75;;
37065;SDS011;22981;43.080;25.550;2023-07-13T06:15:18;17.37;;;12.15;;
37065;SDS011;22981;43.080;25.550;2023-07-13T06:17:45;17.90;;;11.65;;
37065;SDS011;22981;43.080;25.550;2023-07-13T06:20:13;13.85;;;11.53;;
37065;SDS011;22981;43.080;25.550;2023-07-13T06:22:41;16.30;;;11.40;;
37065;SDS011;22981;43.080;25.550;2023-07-13T06:25:08;13.25;;;10.80;;
37065;SDS011;22981;43.080;25.550;2023-07-13T06:27:36;14.15;;;11.45;;
37065;SDS011;22981;43.080;25.550;2023-07-13T06:30:04;14.05;;;10.18;;
37065;SDS011;22981;43.080;25.550;2023-07-13T06:32:32;13.22;;;9.93;;
37065;SDS011;22981;43.080;25.550;2023-07-13T06:35:00;17.00;;;10.80;;
37065;SDS011;22981;43.080;25.550;2023-07-13T06:37:27;15.85;;;10.30;;
37065;SDS011;22981;43.080;25.550;2023-07-13T06:39:55;13.28;;;10.20;;
37065;SDS011;22981;43.080;25.550;2023-07-13T06:42:22;16.30;;;10.58;;
37065;SDS011;22981;43.080;25.550;2023-07-13T06:44:50;13.55;;;10.43;;
37065;SDS011;22981;43.080;25.550;2023-07-13T06:47:17;11.63;;;10.10;;
37065;SDS011;22981;43.080;25.550;2023-07-13T06:49:45;15.85;;;9.90;;
37065;SDS011;22981;43.080;25.550;2023-07-13T06:52:12;12.43;;;10.45;;
37065;SDS011;22981;43.080;25.550;2023-07-13T06:54:40;14.25;;;10.10;;
37065;SDS011;22981;43.080;25.550;2023-07-13T06:57:08;15.00;;;9.35;;
37065;SDS011;22981;43.080;25.550;2023-07-13T06:59:37;11.40;;;10.20;;
37065;SDS011;22981;43.080;25.550;2023-07-13T07:02:10;13.43;;;9.60;;
37065;SDS011;22981;43.080;25.550;2023-07-13T07:04:38;13.03;;;9.83;;
37065;SDS011;22981;43.080;25.550;2023-07-13T07:07:06;15.15;;;9.38;;
37065;SDS011;22981;43.080;25.550;2023-07-13T07:09:33;11.15;;;9.25;;
37065;SDS011;22981;43.080;25.550;2023-07-13T07:12:02;13.15;;;9.45;;
37065;SDS011;22981;43.080;25.550;2023-07-13T07:14:30;12.73;;;9.35;;
37065;SDS011;22981;43.080;25.550;2023-07-13T07:17:00;14.78;;;8.78;;
37065;SDS011;22981;43.080;25.550;2023-07-13T07:19:29;12.18;;;9.08;;
37065;SDS011;22981;43.080;25.550;2023-07-13T07:21:57;15.28;;;8.78;;
37065;SDS011;22981;43.080;25.550;2023-07-13T07:24:25;15.43;;;9.15;;
37065;SDS011;22981;43.080;25.550;2023-07-13T07:27:15;13.80;;;8.55;;
37065;SDS011;22981;43.080;25.550;2023-07-13T07:29:48;11.68;;;8.60;;
37065;SDS011;22981;43.080;25.550;2023-07-13T07:32:16;12.03;;;8.13;;
37065;SDS011;22981;43.080;25.550;2023-07-13T07:34:44;17.07;;;8.65;;
37065;SDS011;22981;43.080;25.550;2023-07-13T07:37:12;13.30;;;8.48;;
37065;SDS011;22981;43.080;25.550;2023-07-13T07:39:41;14.70;;;8.38;;
37065;SDS011;22981;43.080;25.550;2023-07-13T07:42:10;11.45;;;7.92;;
37065;SDS011;22981;43.080;25.550;2023-07-13T07:44:39;12.20;;;7.75;;
37065;SDS011;22981;43.080;25.550;2023-07-13T07:47:07;9.35;;;7.53;;
37065;SDS011;22981;43.080;25.550;2023-07-13T07:49:35;9.28;;;7.58;;
37065;SDS011;22981;43.080;25.550;2023-07-13T07:52:04;8.35;;;7.05;;
37065;SDS011;22981;43.080;25.550;2023-07-13T07:54:33;8.78;;;7.87;;
37065;SDS011;22981;43.080;25.550;2023-07-13T07:57:00;8.93;;;7.25;;
37065;SDS011;22981;43.080;25.550;2023-07-13T07:59:32;10.35;;;7.60;;
37065;SDS011;22981;43.080;25.550;2023-07-13T08:02:03;10.45;;;7.35;;
37065;SDS011;22981;43.080;25.550;2023-07-13T08:04:31;12.82;;;7.35;;
37065;SDS011;22981;43.080;25.550;2023-07-13T08:06:59;7.87;;;6.75;;
37065;SDS011;22981;43.080;25.550;2023-07-13T08:09:36;11.15;;;6.50;;
37065;SDS011;22981;43.080;25.550;2023-07-13T08:12:04;11.70;;;7.30;;
37065;SDS011;22981;43.080;25.550;2023-07-13T08:14:32;9.70;;;7.40;;
37065;SDS011;22981;43.080;25.550;2023-07-13T08:17:00;11.93;;;6.37;;
37065;SDS011;22981;43.080;25.550;2023-07-13T08:19:27;11.12;;;6.42;;
37065;SDS011;22981;43.080;25.550;2023-07-13T08:21:55;10.98;;;6.53;;
37065;SDS011;22981;43.080;25.550;2023-07-13T08:24:23;9.88;;;6.58;;
37065;SDS011;22981;43.080;25.550;2023-07-13T08:26:51;9.73;;;6.12;;
37065;SDS011;22981;43.080;25.550;2023-07-13T08:29:20;9.30;;;5.80;;
37065;SDS011;22981;43.080;25.550;2023-07-13T08:31:47;10.60;;;6.00;;
37065;SDS011;22981;43.080;25.550;2023-07-13T08:34:15;9.63;;;6.33;;
37065;SDS011;22981;43.080;25.550;2023-07-13T08:36:43;9.95;;;6.50;;
37065;SDS011;22981;43.080;25.550;2023-07-13T08:39:11;8.05;;;5.85;;
37065;SDS011;22981;43.080;25.550;2023-07-13T08:41:38;9.43;;;5.80;;
37065;SDS011;22981;43.080;25.550;2023-07-13T08:44:10;6.55;;;5.40;;
37065;SDS011;22981;43.080;25.550;2023-07-13T08:46:37;7.20;;;5.33;;
37065;SDS011;22981;43.080;25.550;2023-07-13T08:49:13;7.45;;;5.37;;
37065;SDS011;22981;43.080;25.550;2023-07-13T08:51:50;5.83;;;4.80;;
37065;SDS011;22981;43.080;25.550;2023-07-13T08:54:33;5.83;;;4.50;;
37065;SDS011;22981;43.080;25.550;2023-07-13T08:57:05;6.83;;;4.33;;
37065;SDS011;22981;43.080;25.550;2023-07-13T08:59:41;8.85;;;4.35;;
37065;SDS011;22981;43.080;25.550;2023-07-13T09:02:16;6.12;;;4.10;;
37065;SDS011;22981;43.080;25.550;2023-07-13T09:04:57;5.35;;;4.35;;
37065;SDS011;22981;43.080;25.550;2023-07-13T09:07:39;6.45;;;4.50;;
37065;SDS011;22981;43.080;25.550;2023-07-13T09:10:15;5.95;;;4.42;;
37065;SDS011;22981;43.080;25.550;2023-07-13T09:13:02;7.47;;;4.33;;
37065;SDS011;22981;43.080;25.550;2023-07-13T09:15:31;7.62;;;4.30;;
37065;SDS011;22981;43.080;25.550;2023-07-13T09:18:11;5.03;;;3.92;;
37065;SDS011;22981;43.080;25.550;2023-07-13T09:20:48;7.87;;;3.90;;
37065;SDS011;22981;43.080;25.550;2023-07-13T09:23:23;5.85;;;3.67;;
37065;SDS011;22981;43.080;25.550;2023-07-13T09:25:48;5.53;;;3.77;;
37065;SDS011;22981;43.080;25.550;2023-07-13T09:28:24;5.25;;;3.75;;
37065;SDS011;22981;43.080;25.550;2023-07-13T09:30:56;11.33;;;3.67;;
37065;SDS011;22981;43.080;25.550;2023-07-13T09:33:29;5.67;;;3.50;;
37065;SDS011;22981;43.080;25.550;2023-07-13T09:35:57;6.00;;;4.15;;
37065;SDS011;22981;43.080;25.550;2023-07-13T09:38:30;6.75;;;3.98;;
37065;SDS011;22981;43.080;25.550;2023-07-13T09:41:04;6.05;;;4.08;;
37065;SDS011;22981;43.080;25.550;2023-07-13T09:43:34;5.95;;;3.90;;
37065;SDS011;22981;43.080;25.550;2023-07-13T09:46:02;7.15;;;4.15;;
37065;SDS011;22981;43.080;25.550;2023-07-13T09:48:33;7.75;;;4.12;;
37065;SDS011;22981;43.080;25.550;2023-07-13T09:51:10;7.17;;;4.20;;
37065;SDS011;22981;43.080;25.550;2023-07-13T09:53:35;7.58;;;4.15;;
37065;SDS011;22981;43.080;25.550;2023-07-13T09:56:03;4.70;;;3.70;;
37065;SDS011;22981;43.080;25.550;2023-07-13T09:58:33;7.00;;;4.03;;
37065;SDS011;22981;43.080;25.550;2023-07-13T10:01:03;9.35;;;4.45;;
37065;SDS011;22981;43.080;25.550;2023-07-13T10:03:32;5.10;;;4.05;;
37065;SDS011;22981;43.080;25.550;2023-07-13T10:06:15;7.83;;;3.55;;
37065;SDS011;22981;43.080;25.550;2023-07-13T10:08:44;7.87;;;3.65;;
37065;SDS011;22981;43.080;25.550;2023-07-13T10:11:21;7.03;;;3.77;;
37065;SDS011;22981;43.080;25.550;2023-07-13T10:13:54;8.60;;;4.05;;
37065;SDS011;22981;43.080;25.550;2023-07-13T10:16:25;4.55;;;3.75;;
37065;SDS011;22981;43.080;25.550;2023-07-13T10:19:05;6.35;;;3.55;;
37065;SDS011;22981;43.080;25.550;2023-07-13T10:21:32;7.08;;;3.52;;
37065;SDS011;22981;43.080;25.550;2023-07-13T10:24:12;6.65;;;3.77;;
37065;SDS011;22981;43.080;25.550;2023-07-13T10:29:34;6.42;;;3.70;;
37065;SDS011;22981;43.080;25.550;2023-07-13T10:32:07;8.90;;;4.28;;
37065;SDS011;22981;43.080;25.550;2023-07-13T10:34:36;9.53;;;3.80;;
37065;SDS011;22981;43.080;25.550;2023-07-13T10:37:05;6.12;;;3.40;;
37065;SDS011;22981;43.080;25.550;2023-07-13T10:39:35;8.15;;;3.55;;
37065;SDS011;22981;43.080;25.550;2023-07-13T10:42:05;9.00;;;4.08;;
37065;SDS011;22981;43.080;25.550;2023-07-13T10:44:35;8.65;;;3.80;;
37065;SDS011;22981;43.080;25.550;2023-07-13T10:47:08;7.60;;;4.10;;
37065;SDS011;22981;43.080;25.550;2023-07-13T10:49:33;5.75;;;3.60;;
37065;SDS011;22981;43.080;25.550;2023-07-13T10:52:02;5.95;;;3.60;;
37065;SDS011;22981;43.080;25.550;2023-07-13T10:54:33;10.30;;;3.47;;
37065;SDS011;22981;43.080;25.550;2023-07-13T10:57:14;5.55;;;3.80;;
37065;SDS011;22981;43.080;25.550;2023-07-13T10:59:49;4.83;;;2.90;;
37065;SDS011;22981;43.080;25.550;2023-07-13T11:02:30;6.20;;;3.70;;
37065;SDS011;22981;43.080;25.550;2023-07-13T11:04:57;7.45;;;3.87;;
37065;SDS011;22981;43.080;25.550;2023-07-13T11:07:27;4.85;;;3.72;;
37065;SDS011;22981;43.080;25.550;2023-07-13T11:09:58;6.20;;;3.58;;
37065;SDS011;22981;43.080;25.550;2023-07-13T11:12:29;5.28;;;3.58;;
37065;SDS011;22981;43.080;25.550;2023-07-13T11:15:26;5.15;;;3.67;;
37065;SDS011;22981;43.080;25.550;2023-07-13T11:17:50;6.35;;;3.60;;
37065;SDS011;22981;43.080;25.550;2023-07-13T11:20:22;7.10;;;4.08;;
37065;SDS011;22981;43.080;25.550;2023-07-13T11:22:53;6.08;;;3.77;;
37065;SDS011;22981;43.080;25.550;2023-07-13T11:25:43;5.65;;;3.90;;
37065;SDS011;22981;43.080;25.550;2023-07-13T11:30:46;5.85;;;3.60;;
37065;SDS011;22981;43.080;25.550;2023-07-13T11:33:21;8.28;;;3.37;;
37065;SDS011;22981;43.080;25.550;2023-07-13T11:38:42;4.25;;;3.35;;
37065;SDS011;22981;43.080;25.550;2023-07-13T11:41:18;6.62;;;3.60;;
37065;SDS011;22981;43.080;25.550;2023-07-13T11:43:51;6.28;;;3.58;;
37065;SDS011;22981;43.080;25.550;2023-07-13T11:46:26;5.95;;;3.60;;
37065;SDS011;22981;43.080;25.550;2023-07-13T11:48:57;6.10;;;3.30;;
37065;SDS011;22981;43.080;25.550;2023-07-13T11:51:33;6.35;;;3.52;;
37065;SDS011;22981;43.080;25.550;2023-07-13T11:54:02;6.65;;;3.55;;
37065;SDS011;22981;43.080;25.550;2023-07-13T11:56:29;7.30;;;3.75;;
37065;SDS011;22981;43.080;25.550;2023-07-13T11:59:03;8.30;;;3.80;;
37065;SDS011;22981;43.080;25.550;2023-07-13T12:01:30;6.78;;;4.42;;
37065;SDS011;22981;43.080;25.550;2023-07-13T12:04:00;7.17;;;3.85;;
37065;SDS011;22981;43.080;25.550;2023-07-13T12:06:30;8.53;;;4.17;;
37065;SDS011;22981;43.080;25.550;2023-07-13T12:09:02;8.50;;;3.65;;
37065;SDS011;22981;43.080;25.550;2023-07-13T12:11:34;7.30;;;3.45;;
37065;SDS011;22981;43.080;25.550;2023-07-13T12:14:03;7.90;;;3.70;;
37065;SDS011;22981;43.080;25.550;2023-07-13T12:16:32;6.42;;;3.62;;
37065;SDS011;22981;43.080;25.550;2023-07-13T12:19:00;8.63;;;3.72;;
37065;SDS011;22981;43.080;25.550;2023-07-13T12:21:30;5.87;;;3.52;;
37065;SDS011;22981;43.080;25.550;2023-07-13T12:24:00;8.95;;;4.08;;
37065;SDS011;22981;43.080;25.550;2023-07-13T12:26:29;7.95;;;3.80;;
37065;SDS011;22981;43.080;25.550;2023-07-13T12:29:01;6.65;;;3.58;;
37065;SDS011;22981;43.080;25.550;2023-07-13T12:31:35;7.90;;;3.58;;
37065;SDS011;22981;43.080;25.550;2023-07-13T12:34:08;6.97;;;3.45;;
37065;SDS011;22981;43.080;25.550;2023-07-13T12:36:39;6.37;;;3.27;;
37065;SDS011;22981;43.080;25.550;2023-07-13T12:41:47;6.75;;;3.83;;
37065;SDS011;22981;43.080;25.550;2023-07-13T12:44:18;8.15;;;3.83;;
37065;SDS011;22981;43.080;25.550;2023-07-13T12:46:57;7.53;;;3.90;;
37065;SDS011;22981;43.080;25.550;2023-07-13T12:49:23;6.70;;;3.90;;
37065;SDS011;22981;43.080;25.550;2023-07-13T12:51:56;15.83;;;11.00;;
37065;SDS011;22981;43.080;25.550;2023-07-13T12:54:26;9.15;;;4.60;;
37065;SDS011;22981;43.080;25.550;2023-07-13T12:56:55;5.87;;;3.77;;
37065;SDS011;22981;43.080;25.550;2023-07-13T12:59:26;5.28;;;3.25;;
37065;SDS011;22981;43.080;25.550;2023-07-13T13:01:55;6.58;;;3.37;;
37065;SDS011;22981;43.080;25.550;2023-07-13T13:04:23;10.40;;;5.05;;
37065;SDS011;22981;43.080;25.550;2023-07-13T13:07:00;6.15;;;3.60;;
37065;SDS011;22981;43.080;25.550;2023-07-13T13:09:30;6.45;;;4.05;;
37065;SDS011;22981;43.080;25.550;2023-07-13T13:11:58;5.75;;;3.87;;
37065;SDS011;22981;43.080;25.550;2023-07-13T13:14:26;8.40;;;3.35;;
37065;SDS011;22981;43.080;25.550;2023-07-13T13:16:53;7.08;;;3.80;;
37065;SDS011;22981;43.080;25.550;2023-07-13T13:19:24;6.50;;;3.55;;
37065;SDS011;22981;43.080;25.550;2023-07-13T13:21:54;7.75;;;4.05;;
37065;SDS011;22981;43.080;25.550;2023-07-13T13:24:24;5.83;;;3.27;;
37065;SDS011;22981;43.080;25.550;2023-07-13T13:26:54;5.67;;;4.05;;
37065;SDS011;22981;43.080;25.550;2023-07-13T13:29:23;7.30;;;3.60;;
37065;SDS011;22981;43.080;25.550;2023-07-13T13:31:52;7.35;;;3.83;;
37065;SDS011;22981;43.080;25.550;2023-07-13T13:34:21;7.30;;;3.62;;
37065;SDS011;22981;43.080;25.550;2023-07-13T13:36:50;9.15;;;3.72;;
37065;SDS011;22981;43.080;25.550;2023-07-13T13:39:20;6.35;;;3.72;;
37065;SDS011;22981;43.080;25.550;2023-07-13T13:41:52;7.45;;;4.00;;
37065;SDS011;22981;43.080;25.550;2023-07-13T13:44:20;7.47;;;3.58;;
37065;SDS011;22981;43.080;25.550;2023-07-13T13:46:50;8.35;;;4.10;;
37065;SDS011;22981;43.080;25.550;2023-07-13T13:49:24;7.28;;;3.95;;
37065;SDS011;22981;43.080;25.550;2023-07-13T13:51:53;8.80;;;4.17;;
37065;SDS011;22981;43.080;25.550;2023-07-13T13:54:21;6.40;;;3.72;;
37065;SDS011;22981;43.080;25.550;2023-07-13T13:56:51;6.85;;;4.22;;
37065;SDS011;22981;43.080;25.550;2023-07-13T13:59:19;10.03;;;4.17;;
37065;SDS011;22981;43.080;25.550;2023-07-13T14:01:47;8.45;;;4.12;;
37065;SDS011;22981;43.080;25.550;2023-07-13T14:04:19;5.10;;;4.00;;
37065;SDS011;22981;43.080;25.550;2023-07-13T14:06:50;8.88;;;4.47;;
37065;SDS011;22981;43.080;25.550;2023-07-13T14:11:47;6.95;;;4.00;;
37065;SDS011;22981;43.080;25.550;2023-07-13T14:14:19;8.88;;;4.40;;
37065;SDS011;22981;43.080;25.550;2023-07-13T14:17:13;5.50;;;3.95;;
37065;SDS011;22981;43.080;25.550;2023-07-13T14:19:52;10.88;;;4.58;;
37065;SDS011;22981;43.080;25.550;2023-07-13T14:22:24;8.70;;;4.25;;
37065;SDS011;22981;43.080;25.550;2023-07-13T14:24:53;5.78;;;3.95;;
37065;SDS011;22981;43.080;25.550;2023-07-13T14:27:23;9.23;;;4.58;;
37065;SDS011;22981;43.080;25.550;2023-07-13T14:29:51;7.30;;;4.10;;
37065;SDS011;22981;43.080;25.550;2023-07-13T14:32:19;11.10;;;4.87;;
37065;SDS011;22981;43.080;25.550;2023-07-13T14:34:47;7.40;;;4.25;;
37065;SDS011;22981;43.080;25.550;2023-07-13T14:37:14;5.53;;;4.00;;
37065;SDS011;22981;43.080;25.550;2023-07-13T14:39:45;7.28;;;4.20;;
37065;SDS011;22981;43.080;25.550;2023-07-13T14:42:33;5.97;;;4.00;;
37065;SDS011;22981;43.080;25.550;2023-07-13T14:45:01;8.43;;;4.30;;
37065;SDS011;22981;43.080;25.550;2023-07-13T14:47:29;8.63;;;4.40;;
37065;SDS011;22981;43.080;25.550;2023-07-13T14:49:56;7.42;;;4.47;;